Air Resources Laboratory banner image
Air Resources Laboratory web site National Oceanic and Atmospheric Administration (NOAA)

tn metar


KBNA 171053Z 00000KT 10SM OVC100 06/M01 A3018 RMK AO2 SLP222 T00561011=
KCHA 171053Z 00000KT 7SM SCT150 M01/M03 A3021 RMK AO2 SLP232 T10111028=
KCKV 171052Z AUTO 22003KT 10SM OVC100 06/M02 A3019 RMK AO2 SLP225 T00611017=
KCSV 171053Z AUTO 07003KT 10SM FEW090 01/M02 A3018 RMK AO2 SLP227 T00111022=
KDYR 171056Z AUTO 00000KT 10SM -RA BKN055 OVC085 06/04 A3019 RMK AO2 SLP240
 T00560039 PNO $=
KHZD 171055Z AUTO 00000KT 10SM SCT038 BKN065 OVC095 05/04 A3019 RMK A01 P0003=
KMEM 171054Z 05007KT 4SM RA BR BKN070 OVC080 06/05 A3015 RMK AO2 SLP210 P0029
 T00560050 $=
KMKL 171053Z AUTO 00000KT 5SM RA BR OVC070 05/04 A3019 RMK AO2 SLP225 P0012
 T00500044=
KMQY 171056Z AUTO 27003KT 10SM OVC100 04/01 A3018 RMK AO2 RAB34E50 SLP205 P0000
 T00440006=
KNQA 171055Z AUTO 13003KT 2 1/2SM BR FEW016 BKN024 OVC038 05/05 A3017 RMK A01
 P0035=
KOQT 171053Z AUTO 07004KT 8SM FEW120 00/M01 A3023 RMK AO2 SLP247 T00001006=
KPHT 171055Z AUTO 19004KT 10SM FEW055 OVC075 05/02 A3018 RMK A01=
KSNH 171055Z AUTO 00000KT 8SM FEW042 SCT055 OVC065 05/03 A3020 RMK A01 P0002=
KSZY 171055Z AUTO 00000KT 10SM SCT046 BKN055 OVC065 04/03 A3019 RMK A01 P0001=
KTRI 171053Z 00000KT 9SM BKN150 M02/M03 A3026 RMK AO2 SLP248 T10221033=
KTYS 171053Z 06005KT 10SM OVC150 M01/M01 A3021 RMK AO2 SLP236 T10111011=
KUCY 171055Z AUTO 17003KT 6SM BR SCT038 OVC070 05/03 A3017 RMK A01=